Time;durP1;ratioP1;P1;durP2;ratioP2;P2;SDS_P1;SDS_P2;PMS_P1;PMS_P2;Temp;Humidity;BMP_temperature;BMP_pressure;BME280_temperature;BME280_humidity;BME280_pressure;Samples;Min_cycle;Max_cycle;Signal;HPM_P1;HPM_P2
2021/03/07 00:01:03;;;;;;;13.03;7.40;;;;;;;2.11;69.53;101239.45;1723964;81;27536;-77
2021/03/07 00:03:30;;;;;;;13.72;7.05;;;;;;;2.11;69.55;101234.17;1718053;82;26089;-77
2021/03/07 00:05:58;;;;;;;15.53;7.05;;;;;;;2.11;69.59;101232.38;1715527;82;25800;-76
2021/03/07 00:08:25;;;;;;;11.43;6.70;;;;;;;2.12;69.77;101233.19;1668667;82;25790;-77
2021/03/07 00:10:52;;;;;;;13.20;6.60;;;;;;;2.11;69.93;101230.20;1692786;82;25795;-77
2021/03/07 00:13:20;;;;;;;13.72;6.30;;;;;;;2.11;69.87;101235.49;1709012;82;27602;-78
2021/03/07 00:15:47;;;;;;;10.65;5.87;;;;;;;2.11;69.95;101231.53;1700897;82;26459;-79
2021/03/07 00:18:14;;;;;;;14.83;7.53;;;;;;;2.09;70.07;101235.62;1700523;81;25431;-77
2021/03/07 00:20:42;;;;;;;13.85;7.33;;;;;;;2.10;70.21;101229.83;1648526;85;25838;-78
2021/03/07 00:23:09;;;;;;;11.65;6.58;;;;;;;2.12;70.23;101225.27;1715284;82;25787;-77
2021/03/07 00:25:36;;;;;;;14.25;7.05;;;;;;;2.13;70.26;101218.56;1734884;82;28546;-78
2021/03/07 00:28:04;;;;;;;14.33;7.15;;;;;;;2.14;70.29;101213.63;1711611;82;25830;-78
2021/03/07 00:30:31;;;;;;;16.67;7.33;;;;;;;2.15;70.28;101207.87;1715592;82;25740;-78
2021/03/07 00:32:59;;;;;;;13.48;7.58;;;;;;;2.15;70.43;101215.32;1663757;82;26464;-77
2021/03/07 00:35:26;;;;;;;10.93;7.17;;;;;;;2.17;70.53;101205.95;1697077;82;26494;-79
2021/03/07 00:37:53;;;;;;;15.72;6.92;;;;;;;2.17;70.65;101198.87;1640976;84;26932;-79
2021/03/07 00:40:21;;;;;;;11.38;5.90;;;;;;;2.17;70.78;101196.22;1718409;82;25969;-78
2021/03/07 00:42:49;;;;;;;12.95;6.42;;;;;;;2.18;70.65;101194.43;1736534;82;26432;-76
2021/03/07 00:45:18;;;;;;;12.63;6.62;;;;;;;2.19;70.95;101186.84;1717312;82;25910;-78
2021/03/07 00:47:45;;;;;;;13.25;6.28;;;;;;;2.19;70.99;101191.66;1727583;81;25731;-78
2021/03/07 00:50:16;;;;;;;11.25;6.55;;;;;;;2.19;70.95;101186.84;1714292;82;27617;-77
2021/03/07 00:52:44;;;;;;;13.15;7.12;;;;;;;2.20;71.01;101185.39;1728246;81;26121;-76
2021/03/07 00:55:11;;;;;;;12.23;5.60;;;;;;;2.20;71.27;101189.36;1712417;81;26388;-77
2021/03/07 00:57:39;;;;;;;12.98;6.80;;;;;;;2.20;71.50;101180.11;1715543;81;26774;-78
2021/03/07 01:00:17;;;;;;;11.00;5.53;;;;;;;2.19;71.36;101178.92;1711058;81;25747;-77
2021/03/07 01:02:45;;;;;;;8.28;4.72;;;;;;;2.20;71.51;101170.05;1710605;81;28269;-77
2021/03/07 01:05:13;;;;;;;11.38;6.30;;;;;;;2.21;71.61;101173.03;1693004;81;25952;-79
2021/03/07 01:07:41;;;;;;;10.55;5.90;;;;;;;2.20;71.63;101164.76;1643658;84;26700;-81
2021/03/07 01:10:16;;;;;;;13.68;6.62;;;;;;;2.20;71.69;101162.93;1692852;83;25876;-77
2021/03/07 01:12:47;;;;;;;9.38;5.55;;;;;;;2.20;71.67;101152.86;1698046;82;25795;-78
2021/03/07 01:15:14;;;;;;;;;;;;;;;2.19;71.85;101157.30;1733316;82;27502;-77
2021/03/07 01:17:42;;;;;;;15.15;6.30;;;;;;;2.20;71.81;101163.44;1710056;82;25927;-78
2021/03/07 01:20:14;;;;;;;12.03;6.45;;;;;;;2.16;72.21;101153.56;1697440;82;25782;-77
2021/03/07 01:22:42;;;;;;;15.53;7.00;;;;;;;2.17;72.08;101145.16;1718242;82;26170;-78
2021/03/07 01:25:10;;;;;;;11.40;5.75;;;;;;;2.16;72.35;101135.06;1672216;82;25780;-77
2021/03/07 01:27:38;;;;;;;16.70;7.47;;;;;;;2.17;72.57;101126.66;1687505;82;28507;-75
2021/03/07 01:30:08;;;;;;;12.28;6.33;;;;;;;2.19;72.45;101128.70;1705109;82;25421;-78
2021/03/07 01:32:37;;;;;;;10.32;6.28;;;;;;;2.19;72.60;101126.06;1720235;82;25830;-77
2021/03/07 01:35:06;;;;;;;17.27;7.58;;;;;;;2.17;72.77;101111.66;1679425;82;26418;-77
2021/03/07 01:37:33;;;;;;;14.03;7.35;;;;;;;2.17;72.88;101110.34;1702986;82;26168;-80
2021/03/07 01:40:05;;;;;;;14.43;7.67;;;;;;;2.19;72.79;101100.95;1698048;82;27842;-79
2021/03/07 01:42:32;;;;;;;16.73;7.67;;;;;;;2.18;72.82;101100.61;1724508;82;25752;-77
2021/03/07 01:45:00;;;;;;;11.48;6.75;;;;;;;2.18;73.02;101096.65;1658217;82;25741;-78
2021/03/07 01:47:33;;;;;;;14.05;7.15;;;;;;;2.16;73.62;101091.97;1706186;82;27054;-78
2021/03/07 01:50:01;;;;;;;13.32;7.95;;;;;;;2.17;73.38;101081.73;1692202;82;25804;-77
2021/03/07 01:52:29;;;;;;;12.93;7.37;;;;;;;2.17;73.55;101079.09;1716314;82;27543;-77
2021/03/07 01:54:56;;;;;;;15.32;8.43;;;;;;;2.16;73.62;101084.85;1702388;82;25852;-77
2021/03/07 01:57:25;;;;;;;14.58;8.93;;;;;;;2.17;73.59;101076.45;1685857;82;25858;-77
2021/03/07 01:59:57;;;;;;;13.78;7.55;;;;;;;2.17;73.68;101060.59;1725171;82;32630;-81
2021/03/07 02:02:26;;;;;;;16.97;8.05;;;;;;;2.16;73.73;101066.36;1733013;82;26074;-77
2021/03/07 02:04:54;;;;;;;14.10;7.83;;;;;;;2.16;73.65;101058.42;1648224;84;27729;-78
2021/03/07 02:07:21;;;;;;;14.10;8.45;;;;;;;2.17;74.17;101057.95;1702559;82;26103;-75
2021/03/07 02:09:50;;;;;;;15.30;7.70;;;;;;;2.16;73.89;101052.33;1685805;82;26502;-77
2021/03/07 02:12:20;;;;;;;17.90;9.08;;;;;;;2.18;73.92;101055.69;1713345;82;26398;-77
2021/03/07 02:14:51;;;;;;;14.40;7.97;;;;;;;2.16;74.31;101047.86;1669168;82;25835;-78
2021/03/07 02:17:20;;;;;;;12.05;7.20;;;;;;;2.17;74.02;101042.09;1700873;82;27538;-77
2021/03/07 02:19:48;;;;;;;16.40;7.97;;;;;;;2.17;74.13;101047.38;1691290;82;25975;-79
2021/03/07 02:22:30;;;;;;;14.45;7.60;;;;;;;2.17;74.07;101039.45;1687811;82;26264;-78
2021/03/07 02:24:57;;;;;;;11.88;8.03;;;;;;;2.17;74.08;101024.45;1695614;82;25805;-79
2021/03/07 02:27:25;;;;;;;14.35;7.95;;;;;;;2.18;74.19;101041.97;1687577;82;26071;-78
2021/03/07 02:29:53;;;;;;;16.57;9.55;;;;;;;2.18;74.09;101034.55;1691666;82;28118;-80
2021/03/07 02:32:22;;;;;;;12.05;7.75;;;;;;;2.18;74.28;101035.36;1712501;82;26040;-79
2021/03/07 02:35:01;;;;;;;14.95;7.50;;;;;;;2.20;74.18;101037.91;1678990;82;25808;-77
2021/03/07 02:37:31;;;;;;;16.80;9.05;;;;;;;2.19;74.26;101034.89;1699779;82;25858;-78
2021/03/07 02:40:00;;;;;;;15.33;8.77;;;;;;;2.19;74.14;101022.52;1696198;82;25474;-76
2021/03/07 02:42:29;;;;;;;12.37;6.62;;;;;;;2.20;74.21;101014.94;1717818;82;27545;-78
2021/03/07 02:45:06;;;;;;;14.85;7.53;;;;;;;2.20;74.46;101016.77;1656918;82;25899;-76
2021/03/07 02:47:35;;;;;;;13.13;6.85;;;;;;;2.20;74.34;101014.94;1702089;83;25914;-77
2021/03/07 02:50:08;;;;;;;14.80;8.50;;;;;;;2.19;74.53;101006.66;1702211;83;26587;-78
2021/03/07 02:52:39;;;;;;;14.58;8.00;;;;;;;2.20;74.30;101000.91;1664626;82;25858;-77
2021/03/07 02:55:07;;;;;;;;;;;;;;;2.19;74.40;101001.38;1719272;81;27547;-76
2021/03/07 02:57:37;;;;;;;16.23;8.00;;;;;;;2.21;74.25;101006.06;1713353;81;25879;-80
2021/03/07 03:00:09;;;;;;;15.18;8.13;;;;;;;2.21;74.46;100995.96;1698594;82;25734;-78
2021/03/07 03:02:38;;;;;;;12.73;6.28;;;;;;;2.22;74.32;100988.41;1700038;81;26410;-77
2021/03/07 03:05:08;;;;;;;14.07;8.18;;;;;;;2.22;74.42;100979.97;1705274;82;26174;-76
2021/03/07 03:07:37;;;;;;;12.93;8.80;;;;;;;2.22;74.47;100986.58;1718373;81;27633;-76
2021/03/07 03:10:07;;;;;;;13.78;8.23;;;;;;;2.22;74.51;100979.16;1676038;82;25867;-77
2021/03/07 03:12:38;;;;;;;16.43;7.80;;;;;;;2.23;74.46;100981.66;1657037;83;25875;-77
2021/03/07 03:15:09;;;;;;;14.40;7.60;;;;;;;2.23;74.33;100977.70;1735266;81;25817;-78
2021/03/07 03:17:39;;;;;;;9.50;6.40;;;;;;;2.25;74.24;100977.09;1713794;81;26142;-75
2021/03/07 03:20:15;;;;;;;15.20;8.23;;;;;;;2.27;74.23;100973.84;1680861;81;28532;-78
2021/03/07 03:22:44;;;;;;;9.73;6.92;;;;;;;2.28;74.00;100963.64;1699746;82;26155;-78
2021/03/07 03:25:12;;;;;;;12.00;6.65;;;;;;;2.31;73.81;100967.34;1713781;82;26451;-77
2021/03/07 03:27:39;;;;;;;8.40;5.65;;;;;;;2.33;73.85;100964.59;1711326;81;25769;-76
2021/03/07 03:30:17;;;;;;;14.05;7.33;;;;;;;2.34;73.89;100966.25;1699387;81;25985;-77
2021/03/07 03:32:45;;;;;;;12.43;6.85;;;;;;;2.34;73.92;100962.28;1709118;81;28446;-77
2021/03/07 03:35:16;;;;;;;15.35;7.75;;;;;;;2.33;74.11;100961.44;1687896;81;25836;-76
2021/03/07 03:37:46;;;;;;;12.63;7.62;;;;;;;2.34;74.03;100962.28;1714634;81;25875;-77
2021/03/07 03:40:25;;;;;;;11.48;6.47;;;;;;;2.34;74.02;100951.72;1714505;81;25932;-76
2021/03/07 03:43:02;;;;;;;6.83;5.17;;;;;;;2.33;74.19;100952.70;1718964;81;26649;-79
2021/03/07 03:45:33;;;;;;;10.23;6.70;;;;;;;2.33;74.33;100965.91;1727596;81;27609;-76
2021/03/07 03:48:05;;;;;;;9.40;5.45;;;;;;;2.34;74.14;100963.13;1727168;80;25797;-77
2021/03/07 03:50:36;;;;;;;14.58;7.62;;;;;;;2.34;74.27;100963.61;1727712;80;25761;-76
2021/03/07 03:53:05;;;;;;;12.63;6.80;;;;;;;2.34;74.27;100959.17;1660677;83;26184;-76
2021/03/07 03:55:33;;;;;;;11.08;6.65;;;;;;;2.34;74.26;100951.24;1687719;82;26414;-78
2021/03/07 03:58:06;;;;;;;13.38;6.40;;;;;;;2.36;74.39;100943.17;1681308;83;27526;-76
2021/03/07 04:00:37;;;;;;;10.72;5.90;;;;;;;2.35;74.26;100938.36;1722870;82;25757;-78
2021/03/07 04:03:07;;;;;;;9.95;6.75;;;;;;;2.35;74.28;100940.19;1712207;82;26293;-76
2021/03/07 04:05:36;;;;;;;13.50;6.92;;;;;;;2.35;74.12;100935.72;1677689;83;25608;-77
2021/03/07 04:08:05;;;;;;;11.90;7.03;;;;;;;2.38;74.18;100937.75;1685094;83;25769;-78
2021/03/07 04:10:32;;;;;;;8.58;5.42;;;;;;;2.38;74.03;100928.02;1721081;81;27526;-78
2021/03/07 04:13:01;;;;;;;9.55;5.40;;;;;;;2.39;74.08;100920.47;1770484;80;26575;-76
2021/03/07 04:15:29;;;;;;;13.38;7.17;;;;;;;2.40;74.00;100918.64;1724408;80;25846;-77
2021/03/07 04:17:58;;;;;;;16.20;6.85;;;;;;;2.40;74.15;100919.48;1724840;81;25755;-76
2021/03/07 04:20:27;;;;;;;14.18;6.85;;;;;;;2.41;73.96;100913.25;1703708;80;26085;-78
2021/03/07 04:22:55;;;;;;;12.10;7.40;;;;;;;2.41;73.99;100911.92;1733068;81;28512;-80
2021/03/07 04:25:23;;;;;;;10.48;7.28;;;;;;;2.44;73.87;100909.52;1762300;80;25886;-79
2021/03/07 04:27:51;;;;;;;14.87;7.80;;;;;;;2.45;73.85;100907.20;1706342;80;25845;-76
2021/03/07 04:30:20;;;;;;;17.65;11.73;;;;;;;2.46;73.90;100911.55;1717942;81;26402;-77
2021/03/07 04:32:50;;;;;;;15.90;10.32;;;;;;;2.45;73.88;100909.38;1741965;81;26225;-78
2021/03/07 04:35:18;;;;;;;12.43;8.85;;;;;;;2.45;73.80;100905.41;1714903;80;28428;-78
2021/03/07 04:37:45;;;;;;;11.20;6.58;;;;;;;2.46;73.77;100904.42;1716611;80;25807;-78
2021/03/07 04:40:13;;;;;;;11.25;7.42;;;;;;;2.46;73.69;100888.56;1723500;80;26237;-77
2021/03/07 04:42:42;;;;;;;10.35;6.47;;;;;;;2.47;73.64;100903.95;1730917;81;26443;-77
2021/03/07 04:45:14;;;;;;;11.10;7.03;;;;;;;2.46;73.62;100891.21;1727795;80;25794;-77
2021/03/07 04:47:43;;;;;;;14.07;6.50;;;;;;;2.47;73.58;100898.19;1724750;81;28285;-78
2021/03/07 04:50:12;;;;;;;11.18;5.72;;;;;;;2.49;73.47;100886.16;1768495;80;26093;-79
2021/03/07 04:52:41;;;;;;;16.02;5.85;;;;;;;2.49;73.36;100887.00;1731033;81;26003;-77
2021/03/07 04:55:11;;;;;;;11.00;6.15;;;;;;;2.49;73.25;100884.83;1719800;80;26497;-78
2021/03/07 04:57:38;;;;;;;8.78;5.33;;;;;;;2.49;73.21;100872.94;1734287;81;25830;-76
2021/03/07 05:00:11;;;;;;;8.33;5.47;;;;;;;2.49;73.21;100883.03;1720582;80;26909;-79
2021/03/07 05:02:39;;;;;;;9.33;5.65;;;;;;;2.50;73.21;100875.47;1705527;82;26310;-78
2021/03/07 05:05:07;;;;;;;12.10;6.78;;;;;;;2.52;73.25;100874.86;1737324;80;25889;-81
2021/03/07 05:07:35;;;;;;;9.58;5.90;;;;;;;2.53;73.13;100872.55;1724289;81;26263;-77
2021/03/07 05:10:06;;;;;;;11.33;5.58;;;;;;;2.53;72.72;100869.91;1688837;83;26186;-78
2021/03/07 05:12:33;;;;;;;10.65;5.33;;;;;;;2.55;72.54;100875.06;1720683;83;27549;-80
2021/03/07 05:15:01;;;;;;;7.53;5.08;;;;;;;2.55;72.35;100866.66;1702603;82;26106;-78
2021/03/07 05:17:28;;;;;;;10.25;5.37;;;;;;;2.55;72.20;100857.87;1691447;82;25900;-78
2021/03/07 05:19:55;;;;;;;6.70;4.30;;;;;;;2.54;72.00;100857.06;1726398;81;26423;-81
2021/03/07 05:22:23;;;;;;;8.30;6.20;;;;;;;2.55;71.63;100851.27;1706861;82;26413;-78
2021/03/07 05:24:50;;;;;;;9.43;6.78;;;;;;;2.57;71.72;100862.07;1716092;82;28450;-78
2021/03/07 05:27:17;;;;;;;8.30;6.58;;;;;;;2.58;71.64;100852.34;1698221;82;25970;-77
2021/03/07 05:29:45;;;;;;;9.85;6.62;;;;;;;2.60;71.24;100859.66;1733522;80;25783;-78
2021/03/07 05:32:12;;;;;;;10.35;6.85;;;;;;;2.60;70.99;100860.50;1708832;82;26495;-77
2021/03/07 05:34:39;;;;;;;9.20;5.00;;;;;;;2.60;70.97;100861.83;1752029;81;26215;-77
2021/03/07 05:37:06;;;;;;;8.23;5.45;;;;;;;2.63;70.31;100858.91;1714326;81;27327;-78
2021/03/07 05:39:34;;;;;;;9.85;4.28;;;;;;;2.66;70.20;100864.42;1695164;81;25776;-82
2021/03/07 05:42:02;;;;;;;4.83;3.90;;;;;;;2.70;69.92;100868.48;1705933;81;25879;-78
2021/03/07 05:44:30;;;;;;;6.72;4.70;;;;;;;2.71;69.81;100858.27;1712542;81;25882;-77
2021/03/07 05:46:58;;;;;;;7.62;5.15;;;;;;;2.70;69.86;100868.00;1716674;81;26552;-78
2021/03/07 05:49:25;;;;;;;7.78;4.72;;;;;;;2.71;69.85;100874.14;1719255;82;27622;-80
2021/03/07 05:51:52;;;;;;;8.70;5.40;;;;;;;2.71;69.98;100868.84;1699876;81;26470;-79
2021/03/07 05:54:21;;;;;;;7.97;5.70;;;;;;;2.71;70.40;100867.53;1718649;82;25883;-78
2021/03/07 05:56:49;;;;;;;9.90;5.58;;;;;;;2.71;70.45;100864.41;1715501;82;26246;-78
2021/03/07 05:59:18;;;;;;;6.10;3.83;;;;;;;2.70;69.95;100869.33;1671059;82;25826;-77
2021/03/07 06:01:45;;;;;;;6.53;4.70;;;;;;;2.69;69.88;100864.17;1721771;81;27769;-78
2021/03/07 06:04:12;;;;;;;6.47;4.50;;;;;;;2.70;69.46;100861.87;1715219;82;26123;-84
2021/03/07 06:06:40;;;;;;;6.47;3.83;;;;;;;2.71;69.92;100862.23;1714855;82;25821;-76
2021/03/07 06:09:22;;;;;;;8.85;3.50;;;;;;;2.70;68.93;100853.94;1663029;82;25762;-78
2021/03/07 06:11:51;;;;;;;8.03;3.90;;;;;;;2.72;68.74;100862.09;1727630;81;25753;-79
2021/03/07 06:14:31;;;;;;;5.08;3.12;;;;;;;2.73;68.43;100858.50;1710451;82;28388;-78
2021/03/07 06:17:10;;;;;;;5.22;4.03;;;;;;;2.74;67.97;100868.09;1721178;81;26039;-80
2021/03/07 06:20:05;;;;;;;4.12;3.42;;;;;;;2.76;67.66;100863.52;1699396;82;25778;-76
2021/03/07 06:22:34;;;;;;;8.73;4.12;;;;;;;2.76;67.67;100860.05;1710395;82;25783;-78
2021/03/07 06:25:10;;;;;;;8.33;4.78;;;;;;;2.76;67.50;100863.52;1698970;82;25432;-80
2021/03/07 06:27:38;;;;;;;11.28;6.37;;;;;;;2.76;67.21;100855.58;1718440;82;28689;-78
2021/03/07 06:30:18;;;;;;;11.12;5.25;;;;;;;2.78;67.58;100858.11;1694341;82;25802;-78
2021/03/07 06:32:55;;;;;;;15.63;7.97;;;;;;;2.76;67.62;100864.83;1719979;82;25900;-78
2021/03/07 06:35:28;;;;;;;10.10;5.12;;;;;;;2.77;68.45;100866.52;1700571;83;25539;-79
2021/03/07 07:56:43;;;;;;;8.78;4.45;;;;;;;2.69;65.95;100813.45;1796336;79;25755;-78
2021/03/07 07:59:12;;;;;;;6.42;3.75;;;;;;;2.58;66.35;100820.61;1771400;80;26487;-77
2021/03/07 08:01:53;;;;;;;6.03;3.58;;;;;;;2.55;66.09;100815.56;1724667;80;27714;-79
2021/03/07 08:04:34;;;;;;;5.17;3.60;;;;;;;2.53;66.13;100810.42;1768895;80;26507;-79
2021/03/07 08:07:03;;;;;;;5.15;3.42;;;;;;;2.51;65.06;100807.07;1763013;80;26482;-78
2021/03/07 08:09:44;;;;;;;3.62;3.05;;;;;;;2.51;64.91;100811.03;1763018;80;25797;-78
2021/03/07 08:12:44;;;;;;;8.85;4.67;;;;;;;2.52;65.16;100811.41;1706216;80;26063;-79
2021/03/07 08:15:31;;;;;;;6.67;3.77;;;;;;;2.52;65.38;100816.69;1724179;81;28416;-79
2021/03/07 08:18:03;;;;;;;5.92;3.52;;;;;;;2.53;65.00;100817.50;1664305;83;25728;-78
2021/03/07 08:20:45;;;;;;;4.28;2.95;;;;;;;2.50;64.39;100806.73;1664356;83;25827;-77
2021/03/07 08:34:51;;;;;;;7.45;3.27;;;;;;;3.05;63.60;100809.42;1752457;80;25738;-77
2021/03/07 08:37:18;;;;;;;9.38;3.52;;;;;;;2.87;63.35;100805.72;1683916;83;25712;-79
2021/03/07 08:39:46;;;;;;;8.05;3.72;;;;;;;2.76;64.06;100801.35;1660435;83;27710;-77
2021/03/07 08:42:18;;;;;;;3.70;3.05;;;;;;;2.72;64.25;100814.97;1687710;83;26174;-78
2021/03/07 08:44:51;;;;;;;6.00;3.27;;;;;;;2.68;64.57;100810.91;1681260;83;25851;-78
2021/03/07 08:47:22;;;;;;;6.22;3.50;;;;;;;2.61;64.30;100805.31;1692939;83;25721;-80
2021/03/07 08:49:49;;;;;;;;;;;;;;;2.59;64.77;100809.89;1654005;84;25801;-78
2021/03/07 08:52:16;;;;;;;7.80;3.77;;;;;;;2.57;65.02;100795.97;1680913;83;27564;-79
2021/03/07 08:54:44;;;;;;;6.50;4.22;;;;;;;2.55;64.78;100794.41;1675382;83;25732;-77
2021/03/07 08:57:12;;;;;;;8.15;4.33;;;;;;;2.54;65.15;100800.21;1666354;83;25796;-79
2021/03/07 08:59:39;;;;;;;9.53;3.90;;;;;;;2.55;65.20;100793.94;1694928;84;25717;-78
2021/03/07 09:02:07;;;;;;;6.30;3.80;;;;;;;2.52;64.58;100783.64;1672238;84;26435;-76
2021/03/07 09:04:37;;;;;;;8.25;3.92;;;;;;;2.53;65.08;100789.74;1708740;82;27579;-80
2021/03/07 09:07:06;;;;;;;6.60;3.90;;;;;;;2.51;65.01;100787.23;1676816;82;25810;-76
2021/03/07 09:09:41;;;;;;;7.83;3.87;;;;;;;2.50;65.18;100784.26;1698107;82;25883;-77
2021/03/07 09:12:10;;;;;;;6.58;4.03;;;;;;;2.50;64.76;100780.77;1684188;82;26278;-79
2021/03/07 09:14:40;;;;;;;7.35;4.15;;;;;;;2.50;65.40;100791.34;1682615;83;25831;-77
2021/03/07 09:17:34;;;;;;;;;;;;;;;;;;;;;
2021/03/07 09:20:04;;;;;;;5.67;4.03;;;;;;;2.58;65.59;100763.76;1814011;77;25738;-79
2021/03/07 09:22:31;;;;;;;9.20;4.78;;;;;;;2.56;65.13;100764.38;1762833;78;26000;-78
2021/03/07 09:25:15;;;;;;;6.37;4.33;;;;;;;2.55;65.19;100766.17;1760944;78;27534;-77
2021/03/07 09:27:43;;;;;;;6.75;4.65;;;;;;;2.56;65.25;100752.48;1760959;79;26064;-77
2021/03/07 09:30:16;;;;;;;8.38;4.67;;;;;;;2.56;64.96;100754.64;1696808;81;25833;-78
2021/03/07 09:32:47;;;;;;;8.33;5.78;;;;;;;2.56;65.52;100751.16;1764853;79;26023;-78
2021/03/07 09:35:31;;;;;;;;;;;;;;;2.54;65.22;100751.30;1719725;80;25850;-77
2021/03/07 09:38:06;;;;;;;10.13;4.78;;;;;;;2.54;65.34;100743.36;1746161;80;27549;-78
2021/03/07 09:40:41;;;;;;;8.05;6.03;;;;;;;2.54;65.79;100749.13;1765609;79;25795;-81
2021/03/07 09:43:14;;;;;;;10.18;4.70;;;;;;;2.56;65.52;100747.19;1709329;79;25872;-78
2021/03/07 09:45:50;;;;;;;7.12;5.58;;;;;;;2.55;65.41;100756.08;1757924;79;26126;-78
2021/03/07 09:48:28;;;;;;;11.75;7.40;;;;;;;2.53;64.89;100736.86;1720769;81;25783;-79
2021/03/07 09:50:57;;;;;;;15.30;7.70;;;;;;;2.54;65.70;100748.66;1747595;81;27480;-78
2021/03/07 09:53:25;;;;;;;18.17;10.43;;;;;;;2.57;65.62;100747.52;1698113;81;26181;-80
2021/03/07 09:55:53;;;;;;;28.38;16.12;;;;;;;2.59;65.96;100745.11;1750903;81;25520;-79
2021/03/07 09:58:21;;;;;;;13.40;6.50;;;;;;;2.63;66.17;100743.05;1718890;81;25753;-79
2021/03/07 10:00:51;;;;;;;8.85;7.40;;;;;;;2.65;65.93;100753.02;1720579;81;25972;-76
2021/03/07 10:03:26;;;;;;;11.43;6.97;;;;;;;2.65;66.00;100743.76;1742180;81;27552;-78
2021/03/07 10:06:14;;;;;;;13.38;6.90;;;;;;;2.64;66.24;100738.95;1718248;81;25724;-78
2021/03/07 10:08:43;;;;;;;11.00;5.72;;;;;;;2.66;66.24;100736.16;1727680;82;25774;-78
2021/03/07 10:11:22;;;;;;;15.55;6.60;;;;;;;2.65;66.16;100735.31;1727964;81;25886;-77
2021/03/07 10:14:03;;;;;;;13.10;7.33;;;;;;;2.65;66.43;100729.21;1760896;80;25825;-79
2021/03/07 10:16:34;;;;;;;16.67;7.10;;;;;;;2.66;66.35;100727.75;1729866;81;27713;-77
2021/03/07 10:19:14;;;;;;;12.18;7.10;;;;;;;2.68;66.26;100731.58;1740470;81;25829;-76
2021/03/07 10:21:45;;;;;;;31.17;20.80;;;;;;;2.68;66.50;100732.90;1696509;82;25957;-78
2021/03/07 10:24:18;;;;;;;19.73;13.72;;;;;;;2.69;66.66;100731.94;1704821;82;26112;-78
2021/03/07 10:26:51;;;;;;;15.60;7.78;;;;;;;2.70;66.55;100730.47;1674153;83;26771;-79
2021/03/07 10:29:31;;;;;;;15.50;7.10;;;;;;;2.73;66.88;100726.73;1699956;83;27662;-76
2021/03/07 10:32:20;;;;;;;13.00;6.53;;;;;;;2.73;66.48;100717.00;1696134;83;25810;-83
2021/03/07 10:34:53;;;;;;;12.18;6.03;;;;;;;2.72;66.22;100724.56;1706131;82;25911;-77
2021/03/07 10:37:43;;;;;;;12.10;5.50;;;;;;;2.68;66.12;100724.97;1706194;82;25857;-79
2021/03/07 10:40:14;;;;;;;15.08;8.35;;;;;;;2.68;66.17;100726.28;1675731;83;26121;-77
2021/03/07 10:42:45;;;;;;;25.17;13.83;;;;;;;2.66;66.55;100726.91;1682690;83;27432;-78
2021/03/07 10:45:20;;;;;;;112.28;46.20;;;;;;;2.66;66.72;100730.88;1713915;82;25844;-78
2021/03/07 10:48:10;;;;;;;33.70;18.00;;;;;;;2.65;66.60;100727.38;1675190;83;25961;-80
2021/03/07 10:50:47;;;;;;;15.13;8.78;;;;;;;2.67;67.06;100736.05;1670145;83;26421;-77
2021/03/07 10:53:18;;;;;;;13.72;8.40;;;;;;;2.68;66.69;100736.38;1705460;82;25426;-77
2021/03/07 10:55:50;;;;;;;15.03;7.43;;;;;;;2.65;66.25;100727.38;1703588;82;27542;-77
2021/03/07 10:58:20;;;;;;;27.82;14.15;;;;;;;2.64;66.66;100727.52;1695244;82;25850;-77
2021/03/07 11:00:47;;;;;;;13.40;9.35;;;;;;;2.65;66.95;100726.06;1711231;82;26472;-77
2021/03/07 11:16:56;;;;;;;16.27;6.70;;;;;;;3.39;64.70;100691.64;1778856;79;26271;-78
2021/03/07 12:36:34;;;;;;;34.60;14.53;;;;;;;3.69;64.82;100605.89;1806820;78;25714;-79
2021/03/07 12:39:02;;;;;;;21.05;7.15;;;;;;;3.49;65.16;100608.22;1805398;79;25733;-80
2021/03/07 12:41:29;;;;;;;14.73;6.08;;;;;;;3.44;65.67;100611.80;1749218;80;28519;-78
2021/03/07 12:43:56;;;;;;;13.88;8.03;;;;;;;3.38;65.68;100601.77;1799716;78;25736;-77
2021/03/07 12:46:24;;;;;;;28.35;17.25;;;;;;;3.30;66.05;100599.81;1748513;80;25741;-78
2021/03/07 12:48:51;;;;;;;15.75;9.40;;;;;;;3.29;66.44;100598.16;1771390;80;25359;-78
2021/03/07 12:51:18;;;;;;;16.70;8.70;;;;;;;3.31;66.50;100598.01;1750617;80;25786;-79
2021/03/07 12:53:45;;;;;;;11.08;7.03;;;;;;;3.28;66.18;100607.53;1765377;80;28593;-79
2021/03/07 12:56:13;;;;;;;16.30;8.50;;;;;;;3.23;66.32;100606.63;1792294;79;26555;-79
2021/03/07 12:58:40;;;;;;;24.60;13.00;;;;;;;3.24;66.65;100592.91;1795202;79;26193;-76
2021/03/07 13:01:07;;;;;;;21.30;14.70;;;;;;;3.22;66.37;100604.98;1780420;78;26079;-77
2021/03/07 13:03:35;;;;;;;18.90;14.58;;;;;;;3.20;66.57;100609.58;1797178;79;25726;-78
2021/03/07 13:06:03;;;;;;;14.87;8.95;;;;;;;3.19;66.84;100607.89;1778397;79;27323;-78
2021/03/07 13:08:30;;;;;;;18.82;7.67;;;;;;;3.19;66.85;100609.72;1795866;79;25970;-78
2021/03/07 13:10:57;;;;;;;12.90;7.08;;;;;;;3.19;66.72;100615.02;1789426;79;26416;-77
2021/03/07 13:13:25;;;;;;;14.43;8.03;;;;;;;3.17;66.51;100593.12;1794505;79;26445;-77
2021/03/07 13:15:52;;;;;;;9.88;6.25;;;;;;;3.18;66.98;100602.27;1772488;80;26293;-77
2021/03/07 13:18:19;;;;;;;10.93;5.90;;;;;;;3.21;66.98;100599.83;1774211;79;27695;-78
2021/03/07 13:20:51;;;;;;;11.97;6.65;;;;;;;3.23;66.98;100592.58;1773860;79;26193;-78
2021/03/07 13:23:26;;;;;;;7.65;6.05;;;;;;;3.28;66.62;100580.59;1812539;77;25691;-76
2021/03/07 13:25:53;;;;;;;13.45;8.65;;;;;;;3.24;66.79;100595.08;1734118;81;25821;-79
2021/03/07 13:28:21;;;;;;;12.45;8.13;;;;;;;3.28;67.40;100591.66;1681785;82;28733;-78
2021/03/07 13:30:48;;;;;;;17.07;9.58;;;;;;;3.32;67.14;100593.05;1687093;82;26290;-80
2021/03/07 13:33:15;;;;;;;11.03;6.95;;;;;;;3.33;66.99;100596.90;1738969;82;26358;-77
2021/03/07 13:35:43;;;;;;;13.68;9.13;;;;;;;3.31;66.58;100585.61;1738943;82;25795;-77
2021/03/07 13:38:10;;;;;;;23.83;13.20;;;;;;;3.30;66.97;100580.44;1690810;82;25846;-77
2021/03/07 13:40:38;;;;;;;20.48;9.18;;;;;;;3.31;67.22;100571.05;1723183;82;27609;-78
2021/03/07 13:43:05;;;;;;;13.80;7.47;;;;;;;3.33;66.73;100562.96;1738475;82;26396;-77
2021/03/07 13:45:34;;;;;;;11.18;7.17;;;;;;;3.35;66.79;100554.39;1738676;81;25823;-78
2021/03/07 13:48:02;;;;;;;13.93;6.83;;;;;;;3.35;66.64;100557.03;1738320;82;25731;-77
2021/03/07 13:50:32;;;;;;;15.68;7.33;;;;;;;3.37;66.64;100547.98;1695743;82;26061;-78
2021/03/07 13:53:00;;;;;;;15.28;7.92;;;;;;;3.43;66.74;100553.19;1716606;82;27061;-78
2021/03/07 13:55:29;;;;;;;12.63;6.35;;;;;;;3.52;66.51;100547.88;1737627;82;26433;-80
2021/03/07 13:57:57;;;;;;;19.37;9.53;;;;;;;3.54;66.19;100549.90;1713906;82;26369;-78
2021/03/07 14:00:26;;;;;;;45.90;20.62;;;;;;;3.55;66.31;100542.28;1718790;82;26354;-77
2021/03/07 14:02:55;;;;;;;27.00;16.30;;;;;;;3.59;66.19;100541.52;1718587;81;25819;-76
2021/03/07 14:05:24;;;;;;;18.98;13.72;;;;;;;3.58;65.91;100543.81;1738748;81;28436;-77
2021/03/07 14:07:52;;;;;;;13.48;7.67;;;;;;;3.58;66.56;100545.14;1689469;82;26482;-77
2021/03/07 14:10:20;;;;;;;15.10;6.87;;;;;;;3.58;65.91;100545.98;1716370;81;26606;-77
2021/03/07 14:12:48;;;;;;;10.68;8.30;;;;;;;3.58;66.45;100545.98;1724707;82;26083;-79
2021/03/07 14:15:17;;;;;;;16.42;8.70;;;;;;;3.59;66.00;100538.36;1725014;82;26341;-78
2021/03/07 14:17:45;;;;;;;17.95;8.08;;;;;;;3.59;65.94;100529.61;1686742;82;27604;-77
2021/03/07 14:20:15;;;;;;;13.78;7.65;;;;;;;3.59;66.37;100532.25;1682222;82;25924;-79
2021/03/07 14:22:43;;;;;;;13.03;7.08;;;;;;;3.56;65.99;100531.20;1686625;82;25873;-80
2021/03/07 14:25:12;;;;;;;11.12;7.25;;;;;;;3.56;66.25;100524.58;1708463;81;26157;-78
2021/03/07 14:27:40;;;;;;;12.53;6.35;;;;;;;3.52;65.98;100524.05;1673101;82;26099;-77
2021/03/07 14:30:12;;;;;;;14.15;7.85;;;;;;;3.49;66.07;100531.42;1666624;84;27542;-78
2021/03/07 14:32:40;;;;;;;13.55;7.00;;;;;;;3.48;66.24;100525.31;1664299;84;26046;-77
2021/03/07 14:35:10;;;;;;;15.78;7.03;;;;;;;3.47;66.37;100524.11;1704856;83;25827;-78
2021/03/07 14:37:39;;;;;;;14.13;7.65;;;;;;;3.47;66.35;100514.36;1629185;84;26436;-78
2021/03/07 14:40:09;;;;;;;14.47;7.47;;;;;;;3.47;66.35;100514.84;1651770;83;26076;-76
2021/03/07 14:42:38;;;;;;;19.50;10.43;;;;;;;3.46;66.25;100507.42;1674678;82;27484;-78
2021/03/07 14:45:09;;;;;;;13.85;7.80;;;;;;;3.43;65.96;100511.66;1675372;83;25703;-78